createdAt,value
2023-05-02T00:10:31.764Z,2.70
2023-05-02T00:25:33.235Z,3.10
2023-05-02T00:40:34.706Z,2.90
2023-05-02T00:55:36.228Z,2.97
2023-05-02T01:10:37.717Z,2.90
2023-05-02T01:25:39.188Z,2.87
2023-05-02T01:40:40.664Z,2.60
2023-05-02T01:55:42.143Z,2.90
2023-05-02T02:10:43.626Z,2.90
2023-05-02T02:25:45.105Z,2.70
2023-05-02T02:40:46.608Z,2.43
2023-05-02T02:55:48.067Z,2.50
2023-05-02T03:10:49.535Z,2.30
2023-05-02T03:25:51.008Z,2.30
2023-05-02T03:40:52.481Z,2.30
2023-05-02T03:55:53.972Z,1.80
2023-05-02T04:10:55.450Z,2.13
2023-05-02T04:25:56.928Z,2.00
2023-05-02T04:40:58.454Z,2.03
2023-05-02T04:55:59.981Z,1.90
2023-05-02T05:11:01.450Z,1.90
2023-05-02T05:26:02.947Z,1.83
2023-05-02T05:41:04.407Z,1.70
2023-05-02T05:56:05.868Z,1.63
2023-05-02T06:11:08.566Z,1.67
2023-05-02T06:26:10.035Z,1.80
2023-05-02T06:41:11.499Z,1.60
2023-05-02T06:56:13.001Z,1.60
2023-05-02T07:11:14.495Z,1.80
2023-05-02T07:26:16.203Z,1.90
2023-05-02T07:41:17.727Z,1.97
2023-05-02T07:56:19.190Z,1.70
2023-05-02T08:11:21.874Z,1.80
2023-05-02T08:26:24.011Z,2.10
2023-05-02T08:41:25.548Z,1.90
2023-05-02T08:56:27.064Z,1.80
2023-05-02T09:11:28.537Z,1.83
2023-05-02T09:26:31.580Z,1.70
2023-05-02T09:41:33.523Z,1.60
2023-05-02T09:56:35.016Z,1.73
2023-05-02T10:11:36.488Z,1.73
2023-05-02T10:26:37.956Z,1.60
2023-05-02T10:41:39.419Z,1.70
2023-05-02T10:56:40.904Z,1.90
2023-05-02T11:11:42.443Z,1.60
2023-05-02T11:26:44.067Z,1.50
2023-05-02T11:41:45.530Z,1.87
2023-05-02T11:56:47.071Z,1.80
2023-05-02T12:11:48.591Z,1.90
2023-05-02T12:26:51.197Z,1.50
2023-05-02T12:41:53.337Z,1.70
2023-05-02T12:56:54.802Z,1.60
2023-05-02T13:11:56.269Z,1.90
2023-05-02T13:26:57.732Z,1.70
2023-05-02T13:41:59.215Z,1.80
2023-05-02T13:57:00.686Z,1.80
2023-05-02T14:12:02.189Z,2.00
2023-05-02T14:27:03.650Z,1.70
2023-05-02T14:42:05.110Z,2.00
2023-05-02T14:57:06.625Z,3.70
2023-05-02T15:12:08.117Z,7.23
2023-05-02T15:27:09.598Z,4.87
2023-05-02T15:42:11.087Z,4.23
2023-05-02T15:57:12.551Z,2.53
2023-05-02T16:12:14.027Z,2.40
2023-05-02T16:27:15.500Z,2.13
2023-05-02T16:42:16.965Z,2.20
2023-05-02T16:57:18.512Z,1.83
2023-05-02T17:12:19.998Z,1.70
2023-05-02T17:27:21.471Z,1.60
2023-05-02T17:42:22.941Z,1.77
2023-05-02T17:57:24.417Z,1.70
2023-05-02T18:12:25.993Z,1.50
2023-05-02T18:27:27.473Z,1.40
2023-05-02T18:42:28.971Z,1.60
2023-05-02T18:57:30.491Z,1.30
2023-05-02T19:12:31.988Z,1.40
2023-05-02T19:27:33.443Z,1.10
2023-05-02T19:42:34.910Z,1.00
2023-05-02T19:57:36.378Z,1.30
2023-05-02T20:12:37.838Z,1.10
2023-05-02T20:27:39.339Z,1.20
2023-05-02T20:42:40.819Z,1.03
2023-05-02T20:57:42.295Z,1.30
2023-05-02T21:12:43.776Z,1.20
2023-05-02T21:27:45.271Z,1.10
2023-05-02T21:42:46.742Z,1.10
2023-05-02T21:57:48.229Z,1.10
2023-05-02T22:12:49.710Z,1.00
2023-05-02T22:27:51.190Z,1.00
2023-05-02T22:42:52.696Z,0.90
2023-05-02T22:57:54.301Z,1.10
2023-05-02T23:12:55.752Z,0.80
2023-05-02T23:27:57.210Z,1.00
2023-05-02T23:42:58.693Z,1.10
2023-05-02T23:58:00.162Z,0.80
